sensor_id;sensor_type;location;lat;lon;timestamp;P1;durP1;ratioP1;P2;durP2;ratioP2
60847;SDS011;46681;47.696;9.140;2023-06-22T00:00:05;7.47;;;4.40;;
60847;SDS011;46681;47.696;9.140;2023-06-22T00:02:33;4.50;;;4.10;;
60847;SDS011;46681;47.696;9.140;2023-06-22T00:04:59;4.43;;;3.73;;
60847;SDS011;46681;47.696;9.140;2023-06-22T00:07:25;6.20;;;4.33;;
60847;SDS011;46681;47.696;9.140;2023-06-22T00:09:50;4.63;;;4.20;;
60847;SDS011;46681;47.696;9.140;2023-06-22T00:12:15;5.77;;;3.90;;
60847;SDS011;46681;47.696;9.140;2023-06-22T00:14:41;4.80;;;3.87;;
60847;SDS011;46681;47.696;9.140;2023-06-22T00:17:06;5.40;;;3.90;;
60847;SDS011;46681;47.696;9.140;2023-06-22T00:19:33;4.10;;;3.70;;
60847;SDS011;46681;47.696;9.140;2023-06-22T00:22:00;5.13;;;3.90;;
60847;SDS011;46681;47.696;9.140;2023-06-22T00:24:26;4.67;;;4.20;;
60847;SDS011;46681;47.696;9.140;2023-06-22T00:26:51;4.53;;;4.10;;
60847;SDS011;46681;47.696;9.140;2023-06-22T00:29:17;4.33;;;3.70;;
60847;SDS011;46681;47.696;9.140;2023-06-22T00:31:42;4.47;;;4.07;;
60847;SDS011;46681;47.696;9.140;2023-06-22T00:34:08;5.73;;;4.67;;
60847;SDS011;46681;47.696;9.140;2023-06-22T00:36:38;4.10;;;3.70;;
60847;SDS011;46681;47.696;9.140;2023-06-22T00:39:04;4.10;;;3.73;;
60847;SDS011;46681;47.696;9.140;2023-06-22T00:41:33;4.73;;;4.23;;
60847;SDS011;46681;47.696;9.140;2023-06-22T00:43:58;4.70;;;3.90;;
60847;SDS011;46681;47.696;9.140;2023-06-22T00:46:24;4.83;;;4.33;;
60847;SDS011;46681;47.696;9.140;2023-06-22T00:48:50;4.97;;;4.23;;
60847;SDS011;46681;47.696;9.140;2023-06-22T00:51:17;4.27;;;3.80;;
60847;SDS011;46681;47.696;9.140;2023-06-22T00:53:42;4.80;;;3.80;;
60847;SDS011;46681;47.696;9.140;2023-06-22T00:56:08;5.17;;;3.83;;
60847;SDS011;46681;47.696;9.140;2023-06-22T00:58:36;5.77;;;4.37;;
60847;SDS011;46681;47.696;9.140;2023-06-22T01:01:03;3.77;;;3.47;;
60847;SDS011;46681;47.696;9.140;2023-06-22T01:03:29;5.07;;;3.63;;
60847;SDS011;46681;47.696;9.140;2023-06-22T01:05:56;4.77;;;3.97;;
60847;SDS011;46681;47.696;9.140;2023-06-22T01:14:11;4.77;;;3.77;;
60847;SDS011;46681;47.696;9.140;2023-06-22T01:16:44;5.93;;;3.80;;
60847;SDS011;46681;47.696;9.140;2023-06-22T01:21:51;5.20;;;4.17;;
60847;SDS011;46681;47.696;9.140;2023-06-22T01:29:41;5.00;;;3.87;;
60847;SDS011;46681;47.696;9.140;2023-06-22T01:32:08;4.20;;;3.80;;
60847;SDS011;46681;47.696;9.140;2023-06-22T01:34:35;3.80;;;3.40;;
60847;SDS011;46681;47.696;9.140;2023-06-22T01:37:04;4.20;;;3.90;;
60847;SDS011;46681;47.696;9.140;2023-06-22T01:39:31;5.23;;;4.43;;
60847;SDS011;46681;47.696;9.140;2023-06-22T01:41:58;5.33;;;3.90;;
60847;SDS011;46681;47.696;9.140;2023-06-22T01:44:24;5.93;;;4.43;;
60847;SDS011;46681;47.696;9.140;2023-06-22T01:46:51;4.57;;;3.87;;
60847;SDS011;46681;47.696;9.140;2023-06-22T01:49:17;5.77;;;4.27;;
60847;SDS011;46681;47.696;9.140;2023-06-22T01:51:43;6.27;;;4.43;;
60847;SDS011;46681;47.696;9.140;2023-06-22T01:54:09;5.70;;;3.67;;
60847;SDS011;46681;47.696;9.140;2023-06-22T01:56:34;5.63;;;3.67;;
60847;SDS011;46681;47.696;9.140;2023-06-22T01:59:11;6.83;;;4.50;;
60847;SDS011;46681;47.696;9.140;2023-06-22T02:01:43;5.10;;;3.67;;
60847;SDS011;46681;47.696;9.140;2023-06-22T02:04:18;4.40;;;4.00;;
60847;SDS011;46681;47.696;9.140;2023-06-22T02:06:45;3.97;;;3.50;;
60847;SDS011;46681;47.696;9.140;2023-06-22T02:09:17;5.50;;;4.07;;
60847;SDS011;46681;47.696;9.140;2023-06-22T02:11:45;5.60;;;3.70;;
60847;SDS011;46681;47.696;9.140;2023-06-22T02:14:12;5.23;;;4.30;;
60847;SDS011;46681;47.696;9.140;2023-06-22T02:16:40;4.70;;;3.73;;
60847;SDS011;46681;47.696;9.140;2023-06-22T02:19:09;5.23;;;4.00;;
60847;SDS011;46681;47.696;9.140;2023-06-22T02:21:35;5.33;;;3.67;;
60847;SDS011;46681;47.696;9.140;2023-06-22T02:24:01;4.53;;;3.73;;
60847;SDS011;46681;47.696;9.140;2023-06-22T02:26:27;5.07;;;3.93;;
60847;SDS011;46681;47.696;9.140;2023-06-22T02:28:52;4.30;;;3.90;;
60847;SDS011;46681;47.696;9.140;2023-06-22T02:31:20;4.57;;;4.17;;
60847;SDS011;46681;47.696;9.140;2023-06-22T02:33:46;5.63;;;3.70;;
60847;SDS011;46681;47.696;9.140;2023-06-22T02:36:11;5.30;;;3.97;;
60847;SDS011;46681;47.696;9.140;2023-06-22T02:38:43;4.27;;;3.80;;
60847;SDS011;46681;47.696;9.140;2023-06-22T02:41:08;3.97;;;3.43;;
60847;SDS011;46681;47.696;9.140;2023-06-22T02:43:34;5.57;;;4.00;;
60847;SDS011;46681;47.696;9.140;2023-06-22T02:46:00;5.13;;;4.30;;
60847;SDS011;46681;47.696;9.140;2023-06-22T02:48:25;6.43;;;3.87;;
60847;SDS011;46681;47.696;9.140;2023-06-22T02:50:51;4.47;;;4.00;;
60847;SDS011;46681;47.696;9.140;2023-06-22T02:53:16;4.70;;;3.93;;
60847;SDS011;46681;47.696;9.140;2023-06-22T02:55:42;4.77;;;4.27;;
60847;SDS011;46681;47.696;9.140;2023-06-22T02:58:07;5.47;;;3.80;;
60847;SDS011;46681;47.696;9.140;2023-06-22T03:00:33;5.47;;;4.23;;
60847;SDS011;46681;47.696;9.140;2023-06-22T03:02:58;6.37;;;3.90;;
60847;SDS011;46681;47.696;9.140;2023-06-22T03:05:24;5.20;;;3.67;;
60847;SDS011;46681;47.696;9.140;2023-06-22T03:07:49;5.30;;;3.90;;
60847;SDS011;46681;47.696;9.140;2023-06-22T03:10:15;5.50;;;3.93;;
60847;SDS011;46681;47.696;9.140;2023-06-22T03:12:41;3.77;;;3.47;;
60847;SDS011;46681;47.696;9.140;2023-06-22T03:15:08;4.43;;;3.83;;
60847;SDS011;46681;47.696;9.140;2023-06-22T03:17:40;6.03;;;3.77;;
60847;SDS011;46681;47.696;9.140;2023-06-22T03:20:06;4.20;;;3.80;;
60847;SDS011;46681;47.696;9.140;2023-06-22T03:22:32;5.80;;;3.30;;
60847;SDS011;46681;47.696;9.140;2023-06-22T03:25:03;4.63;;;4.17;;
60847;SDS011;46681;47.696;9.140;2023-06-22T03:27:29;5.27;;;3.50;;
60847;SDS011;46681;47.696;9.140;2023-06-22T03:29:56;4.13;;;3.73;;
60847;SDS011;46681;47.696;9.140;2023-06-22T03:32:22;5.27;;;3.60;;
60847;SDS011;46681;47.696;9.140;2023-06-22T03:34:47;6.33;;;4.00;;
60847;SDS011;46681;47.696;9.140;2023-06-22T03:37:13;4.97;;;3.90;;
60847;SDS011;46681;47.696;9.140;2023-06-22T03:39:41;5.97;;;4.07;;
60847;SDS011;46681;47.696;9.140;2023-06-22T03:42:07;5.63;;;3.93;;
60847;SDS011;46681;47.696;9.140;2023-06-22T03:44:32;4.47;;;3.80;;
60847;SDS011;46681;47.696;9.140;2023-06-22T03:46:58;5.83;;;3.70;;
60847;SDS011;46681;47.696;9.140;2023-06-22T03:49:23;4.80;;;3.70;;
60847;SDS011;46681;47.696;9.140;2023-06-22T03:51:49;6.63;;;3.30;;
60847;SDS011;46681;47.696;9.140;2023-06-22T03:54:14;4.77;;;3.30;;
60847;SDS011;46681;47.696;9.140;2023-06-22T03:56:42;4.47;;;3.67;;
60847;SDS011;46681;47.696;9.140;2023-06-22T03:59:07;4.60;;;3.90;;
60847;SDS011;46681;47.696;9.140;2023-06-22T04:01:33;5.40;;;3.90;;
60847;SDS011;46681;47.696;9.140;2023-06-22T04:03:59;4.30;;;3.67;;
60847;SDS011;46681;47.696;9.140;2023-06-22T04:06:24;6.87;;;4.07;;
60847;SDS011;46681;47.696;9.140;2023-06-22T04:08:50;5.83;;;3.80;;
60847;SDS011;46681;47.696;9.140;2023-06-22T04:11:15;5.23;;;4.03;;
60847;SDS011;46681;47.696;9.140;2023-06-22T04:13:41;7.57;;;4.07;;
60847;SDS011;46681;47.696;9.140;2023-06-22T04:16:07;4.60;;;3.57;;
60847;SDS011;46681;47.696;9.140;2023-06-22T04:18:32;6.40;;;4.30;;
60847;SDS011;46681;47.696;9.140;2023-06-22T04:21:01;6.10;;;3.90;;
60847;SDS011;46681;47.696;9.140;2023-06-22T04:23:27;5.40;;;4.53;;
60847;SDS011;46681;47.696;9.140;2023-06-22T04:25:53;6.80;;;3.83;;
60847;SDS011;46681;47.696;9.140;2023-06-22T04:28:21;7.57;;;4.13;;
60847;SDS011;46681;47.696;9.140;2023-06-22T04:30:47;12.03;;;4.70;;
60847;SDS011;46681;47.696;9.140;2023-06-22T04:33:17;12.90;;;4.60;;
60847;SDS011;46681;47.696;9.140;2023-06-22T04:35:49;11.27;;;4.37;;
60847;SDS011;46681;47.696;9.140;2023-06-22T04:38:15;9.03;;;4.17;;
60847;SDS011;46681;47.696;9.140;2023-06-22T04:40:42;5.93;;;3.77;;
60847;SDS011;46681;47.696;9.140;2023-06-22T04:43:12;6.13;;;4.40;;
60847;SDS011;46681;47.696;9.140;2023-06-22T04:45:41;6.27;;;4.10;;
60847;SDS011;46681;47.696;9.140;2023-06-22T04:48:07;8.20;;;4.50;;
60847;SDS011;46681;47.696;9.140;2023-06-22T04:50:33;9.70;;;4.00;;
60847;SDS011;46681;47.696;9.140;2023-06-22T04:53:01;6.67;;;4.43;;
60847;SDS011;46681;47.696;9.140;2023-06-22T04:55:26;7.73;;;5.03;;
60847;SDS011;46681;47.696;9.140;2023-06-22T04:58:02;12.90;;;4.30;;
60847;SDS011;46681;47.696;9.140;2023-06-22T05:00:31;9.83;;;4.33;;
60847;SDS011;46681;47.696;9.140;2023-06-22T05:02:59;11.10;;;4.83;;
60847;SDS011;46681;47.696;9.140;2023-06-22T05:05:29;11.60;;;5.80;;
60847;SDS011;46681;47.696;9.140;2023-06-22T05:08:02;11.47;;;5.30;;
60847;SDS011;46681;47.696;9.140;2023-06-22T05:10:46;6.50;;;5.40;;
60847;SDS011;46681;47.696;9.140;2023-06-22T05:13:12;11.90;;;5.70;;
60847;SDS011;46681;47.696;9.140;2023-06-22T05:15:42;9.97;;;6.10;;
60847;SDS011;46681;47.696;9.140;2023-06-22T05:18:27;12.80;;;6.70;;
60847;SDS011;46681;47.696;9.140;2023-06-22T05:21:00;10.57;;;6.17;;
60847;SDS011;46681;47.696;9.140;2023-06-22T05:23:42;8.63;;;6.07;;
60847;SDS011;46681;47.696;9.140;2023-06-22T05:26:15;10.63;;;6.97;;
60847;SDS011;46681;47.696;9.140;2023-06-22T05:28:42;9.87;;;6.33;;
60847;SDS011;46681;47.696;9.140;2023-06-22T05:31:08;8.30;;;6.07;;
60847;SDS011;46681;47.696;9.140;2023-06-22T05:33:37;13.53;;;6.33;;
60847;SDS011;46681;47.696;9.140;2023-06-22T05:36:09;11.50;;;6.33;;
60847;SDS011;46681;47.696;9.140;2023-06-22T05:38:43;12.90;;;6.87;;
60847;SDS011;46681;47.696;9.140;2023-06-22T05:41:13;11.80;;;6.27;;
60847;SDS011;46681;47.696;9.140;2023-06-22T05:43:39;12.27;;;7.07;;
60847;SDS011;46681;47.696;9.140;2023-06-22T05:46:08;9.40;;;6.53;;
60847;SDS011;46681;47.696;9.140;2023-06-22T05:48:37;11.10;;;6.40;;
60847;SDS011;46681;47.696;9.140;2023-06-22T05:51:03;9.47;;;7.07;;
60847;SDS011;46681;47.696;9.140;2023-06-22T05:53:54;9.30;;;6.07;;
60847;SDS011;46681;47.696;9.140;2023-06-22T05:56:28;9.23;;;7.10;;
60847;SDS011;46681;47.696;9.140;2023-06-22T05:59:08;13.07;;;6.57;;
60847;SDS011;46681;47.696;9.140;2023-06-22T06:02:03;9.67;;;6.90;;
60847;SDS011;46681;47.696;9.140;2023-06-22T06:04:30;10.83;;;6.90;;
60847;SDS011;46681;47.696;9.140;2023-06-22T06:06:57;11.53;;;6.97;;
60847;SDS011;46681;47.696;9.140;2023-06-22T06:09:23;9.00;;;7.07;;
60847;SDS011;46681;47.696;9.140;2023-06-22T06:11:51;7.70;;;6.10;;
60847;SDS011;46681;47.696;9.140;2023-06-22T06:14:21;9.80;;;5.73;;
60847;SDS011;46681;47.696;9.140;2023-06-22T06:16:58;10.47;;;7.07;;
60847;SDS011;46681;47.696;9.140;2023-06-22T06:19:26;11.30;;;6.93;;
60847;SDS011;46681;47.696;9.140;2023-06-22T06:21:52;8.90;;;5.93;;
60847;SDS011;46681;47.696;9.140;2023-06-22T06:24:20;11.30;;;7.10;;
60847;SDS011;46681;47.696;9.140;2023-06-22T06:26:53;13.67;;;8.37;;
60847;SDS011;46681;47.696;9.140;2023-06-22T06:29:20;11.90;;;7.83;;
60847;SDS011;46681;47.696;9.140;2023-06-22T06:31:49;11.50;;;8.00;;
60847;SDS011;46681;47.696;9.140;2023-06-22T06:34:26;11.47;;;8.10;;
60847;SDS011;46681;47.696;9.140;2023-06-22T06:37:04;13.80;;;7.63;;
60847;SDS011;46681;47.696;9.140;2023-06-22T06:39:35;12.87;;;7.67;;
60847;SDS011;46681;47.696;9.140;2023-06-22T06:42:22;16.97;;;7.37;;
60847;SDS011;46681;47.696;9.140;2023-06-22T06:44:51;18.43;;;8.30;;
60847;SDS011;46681;47.696;9.140;2023-06-22T06:56:18;14.77;;;8.10;;
60847;SDS011;46681;47.696;9.140;2023-06-22T06:58:46;9.17;;;6.50;;
60847;SDS011;46681;47.696;9.140;2023-06-22T07:01:27;11.13;;;7.63;;
60847;SDS011;46681;47.696;9.140;2023-06-22T07:04:06;8.00;;;6.30;;
60847;SDS011;46681;47.696;9.140;2023-06-22T07:06:39;11.33;;;6.73;;
60847;SDS011;46681;47.696;9.140;2023-06-22T07:09:05;14.63;;;7.30;;
60847;SDS011;46681;47.696;9.140;2023-06-22T07:11:33;10.70;;;6.80;;
60847;SDS011;46681;47.696;9.140;2023-06-22T07:14:04;12.83;;;6.20;;
60847;SDS011;46681;47.696;9.140;2023-06-22T07:16:30;12.30;;;7.47;;
60847;SDS011;46681;47.696;9.140;2023-06-22T07:19:07;13.67;;;7.47;;
60847;SDS011;46681;47.696;9.140;2023-06-22T07:21:47;13.60;;;6.97;;
60847;SDS011;46681;47.696;9.140;2023-06-22T07:24:16;13.53;;;7.47;;
60847;SDS011;46681;47.696;9.140;2023-06-22T07:26:54;10.43;;;6.53;;
60847;SDS011;46681;47.696;9.140;2023-06-22T07:29:45;12.40;;;6.70;;
60847;SDS011;46681;47.696;9.140;2023-06-22T07:32:11;10.50;;;6.43;;
60847;SDS011;46681;47.696;9.140;2023-06-22T07:34:39;12.77;;;7.23;;
60847;SDS011;46681;47.696;9.140;2023-06-22T07:40:15;11.57;;;6.63;;
60847;SDS011;46681;47.696;9.140;2023-06-22T07:42:53;8.93;;;5.90;;
60847;SDS011;46681;47.696;9.140;2023-06-22T07:45:40;9.67;;;6.27;;
60847;SDS011;46681;47.696;9.140;2023-06-22T07:48:06;8.80;;;6.30;;
60847;SDS011;46681;47.696;9.140;2023-06-22T07:50:35;10.00;;;6.50;;
60847;SDS011;46681;47.696;9.140;2023-06-22T07:53:09;13.07;;;7.77;;
60847;SDS011;46681;47.696;9.140;2023-06-22T07:55:42;9.13;;;7.23;;
60847;SDS011;46681;47.696;9.140;2023-06-22T08:01:09;12.87;;;6.73;;
60847;SDS011;46681;47.696;9.140;2023-06-22T08:03:40;13.17;;;7.97;;
60847;SDS011;46681;47.696;9.140;2023-06-22T08:09:02;15.53;;;8.40;;
60847;SDS011;46681;47.696;9.140;2023-06-22T08:12:13;14.23;;;7.70;;
60847;SDS011;46681;47.696;9.140;2023-06-22T08:14:47;15.43;;;8.73;;
60847;SDS011;46681;47.696;9.140;2023-06-22T08:20:11;12.30;;;7.63;;
60847;SDS011;46681;47.696;9.140;2023-06-22T08:28:41;11.97;;;8.07;;
60847;SDS011;46681;47.696;9.140;2023-06-22T08:31:13;12.70;;;7.23;;
60847;SDS011;46681;47.696;9.140;2023-06-22T08:33:52;10.93;;;7.43;;
60847;SDS011;46681;47.696;9.140;2023-06-22T08:36:28;14.23;;;7.87;;
60847;SDS011;46681;47.696;9.140;2023-06-22T08:39:00;11.90;;;7.23;;
60847;SDS011;46681;47.696;9.140;2023-06-22T08:44:27;13.83;;;8.43;;
60847;SDS011;46681;47.696;9.140;2023-06-22T08:46:55;12.80;;;7.43;;
60847;SDS011;46681;47.696;9.140;2023-06-22T08:49:37;20.67;;;7.50;;
60847;SDS011;46681;47.696;9.140;2023-06-22T08:52:24;10.53;;;6.37;;
60847;SDS011;46681;47.696;9.140;2023-06-22T08:55:27;10.80;;;5.93;;
60847;SDS011;46681;47.696;9.140;2023-06-22T08:58:01;7.83;;;5.30;;
60847;SDS011;46681;47.696;9.140;2023-06-22T09:00:33;9.33;;;5.90;;
60847;SDS011;46681;47.696;9.140;2023-06-22T09:03:06;8.70;;;5.30;;
60847;SDS011;46681;47.696;9.140;2023-06-22T09:08:43;8.13;;;5.33;;
60847;SDS011;46681;47.696;9.140;2023-06-22T09:11:15;6.97;;;4.93;;
60847;SDS011;46681;47.696;9.140;2023-06-22T09:13:52;7.53;;;5.63;;
60847;SDS011;46681;47.696;9.140;2023-06-22T09:19:05;6.70;;;5.27;;
60847;SDS011;46681;47.696;9.140;2023-06-22T09:21:37;6.37;;;4.90;;
60847;SDS011;46681;47.696;9.140;2023-06-22T09:24:24;9.73;;;5.10;;
60847;SDS011;46681;47.696;9.140;2023-06-22T09:27:19;5.27;;;4.60;;
60847;SDS011;46681;47.696;9.140;2023-06-22T09:29:46;6.90;;;4.87;;
60847;SDS011;46681;47.696;9.140;2023-06-22T09:35:07;6.67;;;4.90;;
60847;SDS011;46681;47.696;9.140;2023-06-22T09:40:50;4.67;;;4.27;;
60847;SDS011;46681;47.696;9.140;2023-06-22T09:43:20;7.63;;;4.30;;
60847;SDS011;46681;47.696;9.140;2023-06-22T09:45:46;6.67;;;4.23;;
60847;SDS011;46681;47.696;9.140;2023-06-22T09:48:12;5.90;;;4.17;;
60847;SDS011;46681;47.696;9.140;2023-06-22T09:50:46;5.00;;;4.30;;
60847;SDS011;46681;47.696;9.140;2023-06-22T09:53:21;6.33;;;4.47;;
60847;SDS011;46681;47.696;9.140;2023-06-22T09:56:12;6.27;;;3.90;;
60847;SDS011;46681;47.696;9.140;2023-06-22T09:58:43;6.50;;;4.33;;
60847;SDS011;46681;47.696;9.140;2023-06-22T10:01:34;5.93;;;4.33;;
60847;SDS011;46681;47.696;9.140;2023-06-22T10:04:25;6.87;;;4.30;;
60847;SDS011;46681;47.696;9.140;2023-06-22T10:07:18;5.73;;;4.23;;
60847;SDS011;46681;47.696;9.140;2023-06-22T10:10:01;9.57;;;4.40;;
60847;SDS011;46681;47.696;9.140;2023-06-22T10:16:02;5.27;;;4.20;;
60847;SDS011;46681;47.696;9.140;2023-06-22T10:24:48;8.77;;;4.47;;
60847;SDS011;46681;47.696;9.140;2023-06-22T10:27:16;5.50;;;4.10;;
60847;SDS011;46681;47.696;9.140;2023-06-22T10:32:46;6.60;;;4.03;;
60847;SDS011;46681;47.696;9.140;2023-06-22T10:38:40;5.33;;;4.23;;
60847;SDS011;46681;47.696;9.140;2023-06-22T10:41:49;6.87;;;4.23;;
60847;SDS011;46681;47.696;9.140;2023-06-22T10:44:35;6.53;;;4.40;;
60847;SDS011;46681;47.696;9.140;2023-06-22T10:47:25;4.33;;;3.93;;
60847;SDS011;46681;47.696;9.140;2023-06-22T10:49:53;5.73;;;3.90;;
60847;SDS011;46681;47.696;9.140;2023-06-22T10:52:27;7.10;;;4.37;;
60847;SDS011;46681;47.696;9.140;2023-06-22T10:55:04;10.60;;;4.23;;
60847;SDS011;46681;47.696;9.140;2023-06-22T10:57:48;6.53;;;4.40;;
60847;SDS011;46681;47.696;9.140;2023-06-22T11:03:51;5.77;;;4.20;;
60847;SDS011;46681;47.696;9.140;2023-06-22T11:12:53;8.73;;;4.20;;
60847;SDS011;46681;47.696;9.140;2023-06-22T11:22:15;13.63;;;6.00;;
60847;SDS011;46681;47.696;9.140;2023-06-22T11:25:18;12.27;;;6.03;;
60847;SDS011;46681;47.696;9.140;2023-06-22T11:27:46;8.67;;;6.00;;
60847;SDS011;46681;47.696;9.140;2023-06-22T11:33:20;9.93;;;6.37;;
60847;SDS011;46681;47.696;9.140;2023-06-22T11:35:50;13.80;;;7.00;;
60847;SDS011;46681;47.696;9.140;2023-06-22T11:47:16;11.90;;;6.30;;
60847;SDS011;46681;47.696;9.140;2023-06-22T11:50:04;10.07;;;6.97;;
60847;SDS011;46681;47.696;9.140;2023-06-22T11:56:09;12.47;;;6.80;;
60847;SDS011;46681;47.696;9.140;2023-06-22T12:10:22;9.77;;;6.27;;
60847;SDS011;46681;47.696;9.140;2023-06-22T12:15:52;10.20;;;6.87;;
60847;SDS011;46681;47.696;9.140;2023-06-22T12:18:37;10.57;;;6.50;;
60847;SDS011;46681;47.696;9.140;2023-06-22T12:21:05;8.27;;;5.60;;
60847;SDS011;46681;47.696;9.140;2023-06-22T12:24:22;8.70;;;5.80;;
60847;SDS011;46681;47.696;9.140;2023-06-22T12:27:30;8.80;;;4.60;;
60847;SDS011;46681;47.696;9.140;2023-06-22T12:30:09;8.90;;;5.77;;
60847;SDS011;46681;47.696;9.140;2023-06-22T12:35:39;9.33;;;5.17;;
60847;SDS011;46681;47.696;9.140;2023-06-22T12:38:06;8.03;;;5.07;;
60847;SDS011;46681;47.696;9.140;2023-06-22T12:40:31;8.13;;;5.00;;
60847;SDS011;46681;47.696;9.140;2023-06-22T12:43:09;10.07;;;5.07;;
60847;SDS011;46681;47.696;9.140;2023-06-22T12:45:35;8.63;;;5.50;;
60847;SDS011;46681;47.696;9.140;2023-06-22T12:48:16;7.07;;;4.77;;
60847;SDS011;46681;47.696;9.140;2023-06-22T12:56:28;6.30;;;5.10;;
60847;SDS011;46681;47.696;9.140;2023-06-22T12:58:58;9.50;;;4.87;;
60847;SDS011;46681;47.696;9.140;2023-06-22T13:02:05;5.90;;;5.00;;
60847;SDS011;46681;47.696;9.140;2023-06-22T13:04:47;8.20;;;4.60;;
60847;SDS011;46681;47.696;9.140;2023-06-22T13:07:24;7.37;;;4.40;;
60847;SDS011;46681;47.696;9.140;2023-06-22T13:10:02;6.43;;;5.17;;
60847;SDS011;46681;47.696;9.140;2023-06-22T13:12:39;5.77;;;4.30;;
60847;SDS011;46681;47.696;9.140;2023-06-22T13:15:25;5.50;;;4.70;;
60847;SDS011;46681;47.696;9.140;2023-06-22T13:24:00;10.10;;;5.33;;
60847;SDS011;46681;47.696;9.140;2023-06-22T13:27:23;7.63;;;5.23;;
60847;SDS011;46681;47.696;9.140;2023-06-22T13:30:08;16.73;;;5.83;;
60847;SDS011;46681;47.696;9.140;2023-06-22T13:32:52;7.73;;;4.43;;
60847;SDS011;46681;47.696;9.140;2023-06-22T13:35:27;10.63;;;5.90;;
60847;SDS011;46681;47.696;9.140;2023-06-22T13:38:04;9.13;;;5.40;;
60847;SDS011;46681;47.696;9.140;2023-06-22T13:46:32;11.33;;;5.60;;
60847;SDS011;46681;47.696;9.140;2023-06-22T13:52:31;9.07;;;5.60;;
60847;SDS011;46681;47.696;9.140;2023-06-22T13:58:15;17.50;;;6.27;;
60847;SDS011;46681;47.696;9.140;2023-06-22T14:00:44;9.30;;;6.37;;
60847;SDS011;46681;47.696;9.140;2023-06-22T14:03:18;10.90;;;6.57;;
60847;SDS011;46681;47.696;9.140;2023-06-22T14:09:22;11.70;;;6.63;;
60847;SDS011;46681;47.696;9.140;2023-06-22T14:11:55;10.80;;;6.87;;
60847;SDS011;46681;47.696;9.140;2023-06-22T14:14:43;9.20;;;6.00;;
60847;SDS011;46681;47.696;9.140;2023-06-22T14:17:14;8.80;;;5.70;;
60847;SDS011;46681;47.696;9.140;2023-06-22T14:19:56;13.07;;;7.07;;
60847;SDS011;46681;47.696;9.140;2023-06-22T14:22:34;14.47;;;6.47;;
60847;SDS011;46681;47.696;9.140;2023-06-22T14:25:24;10.03;;;5.17;;
60847;SDS011;46681;47.696;9.140;2023-06-22T14:28:13;10.77;;;5.10;;
60847;SDS011;46681;47.696;9.140;2023-06-22T14:30:54;12.37;;;4.70;;
60847;SDS011;46681;47.696;9.140;2023-06-22T14:33:28;11.73;;;5.20;;
60847;SDS011;46681;47.696;9.140;2023-06-22T14:35:55;15.43;;;4.90;;
60847;SDS011;46681;47.696;9.140;2023-06-22T14:38:28;17.10;;;4.80;;
60847;SDS011;46681;47.696;9.140;2023-06-22T14:40:59;13.03;;;4.57;;
60847;SDS011;46681;47.696;9.140;2023-06-22T14:43:54;13.83;;;5.00;;
60847;SDS011;46681;47.696;9.140;2023-06-22T14:46:30;14.17;;;4.70;;
60847;SDS011;46681;47.696;9.140;2023-06-22T14:49:19;9.60;;;4.27;;
60847;SDS011;46681;47.696;9.140;2023-06-22T14:51:47;16.17;;;4.47;;
60847;SDS011;46681;47.696;9.140;2023-06-22T14:54:38;10.30;;;4.70;;
60847;SDS011;46681;47.696;9.140;2023-06-22T15:00:18;11.67;;;4.63;;
60847;SDS011;46681;47.696;9.140;2023-06-22T15:06:05;8.60;;;4.30;;
60847;SDS011;46681;47.696;9.140;2023-06-22T15:09:05;7.87;;;4.30;;
60847;SDS011;46681;47.696;9.140;2023-06-22T15:14:53;9.33;;;4.07;;
60847;SDS011;46681;47.696;9.140;2023-06-22T15:20:53;10.50;;;3.87;;
60847;SDS011;46681;47.696;9.140;2023-06-22T15:23:47;6.67;;;4.03;;
60847;SDS011;46681;47.696;9.140;2023-06-22T15:26:37;7.43;;;4.23;;
60847;SDS011;46681;47.696;9.140;2023-06-22T15:29:44;5.97;;;3.83;;
60847;SDS011;46681;47.696;9.140;2023-06-22T15:32:29;8.83;;;4.13;;
60847;SDS011;46681;47.696;9.140;2023-06-22T15:35:05;17.13;;;4.77;;
60847;SDS011;46681;47.696;9.140;2023-06-22T15:38:32;11.30;;;4.20;;
60847;SDS011;46681;47.696;9.140;2023-06-22T15:41:10;9.30;;;4.20;;
60847;SDS011;46681;47.696;9.140;2023-06-22T15:43:57;8.50;;;4.07;;
60847;SDS011;46681;47.696;9.140;2023-06-22T15:46:30;9.10;;;3.67;;
60847;SDS011;46681;47.696;9.140;2023-06-22T15:48:58;9.13;;;4.27;;
60847;SDS011;46681;47.696;9.140;2023-06-22T15:51:25;7.23;;;3.70;;
60847;SDS011;46681;47.696;9.140;2023-06-22T15:54:19;10.23;;;4.07;;
60847;SDS011;46681;47.696;9.140;2023-06-22T15:56:49;6.20;;;4.40;;
60847;SDS011;46681;47.696;9.140;2023-06-22T15:59:26;9.80;;;4.07;;
60847;SDS011;46681;47.696;9.140;2023-06-22T16:02:01;8.60;;;4.10;;
60847;SDS011;46681;47.696;9.140;2023-06-22T16:04:48;5.17;;;3.60;;
60847;SDS011;46681;47.696;9.140;2023-06-22T16:07:14;6.47;;;4.43;;
60847;SDS011;46681;47.696;9.140;2023-06-22T16:09:50;11.13;;;4.33;;
60847;SDS011;46681;47.696;9.140;2023-06-22T16:15:29;7.07;;;3.90;;
60847;SDS011;46681;47.696;9.140;2023-06-22T16:17:58;7.67;;;4.20;;
60847;SDS011;46681;47.696;9.140;2023-06-22T16:20:32;8.77;;;3.47;;
60847;SDS011;46681;47.696;9.140;2023-06-22T16:23:12;9.80;;;4.20;;
60847;SDS011;46681;47.696;9.140;2023-06-22T16:25:45;7.93;;;3.63;;
60847;SDS011;46681;47.696;9.140;2023-06-22T16:28:16;9.83;;;3.80;;
60847;SDS011;46681;47.696;9.140;2023-06-22T16:30:56;5.30;;;4.10;;
60847;SDS011;46681;47.696;9.140;2023-06-22T16:33:46;8.17;;;3.83;;
60847;SDS011;46681;47.696;9.140;2023-06-22T16:36:23;8.97;;;4.10;;
60847;SDS011;46681;47.696;9.140;2023-06-22T16:39:02;10.03;;;4.00;;
60847;SDS011;46681;47.696;9.140;2023-06-22T16:42:00;9.40;;;4.53;;
60847;SDS011;46681;47.696;9.140;2023-06-22T16:44:39;12.07;;;3.60;;
60847;SDS011;46681;47.696;9.140;2023-06-22T16:47:21;9.13;;;3.93;;
60847;SDS011;46681;47.696;9.140;2023-06-22T16:49:50;9.67;;;4.10;;
60847;SDS011;46681;47.696;9.140;2023-06-22T16:52:31;8.10;;;3.70;;
60847;SDS011;46681;47.696;9.140;2023-06-22T16:55:07;8.47;;;4.27;;
60847;SDS011;46681;47.696;9.140;2023-06-22T16:58:14;10.47;;;4.57;;
60847;SDS011;46681;47.696;9.140;2023-06-22T17:01:03;9.53;;;3.67;;
60847;SDS011;46681;47.696;9.140;2023-06-22T17:06:41;8.17;;;4.17;;
60847;SDS011;46681;47.696;9.140;2023-06-22T17:12:24;7.53;;;4.47;;
60847;SDS011;46681;47.696;9.140;2023-06-22T17:15:04;8.23;;;4.03;;
60847;SDS011;46681;47.696;9.140;2023-06-22T17:17:40;8.27;;;4.70;;
60847;SDS011;46681;47.696;9.140;2023-06-22T17:20:17;7.83;;;4.40;;
60847;SDS011;46681;47.696;9.140;2023-06-22T17:22:50;8.27;;;4.23;;
60847;SDS011;46681;47.696;9.140;2023-06-22T17:25:33;10.87;;;4.20;;
60847;SDS011;46681;47.696;9.140;2023-06-22T17:28:00;8.57;;;4.40;;
60847;SDS011;46681;47.696;9.140;2023-06-22T17:31:09;12.70;;;5.00;;
60847;SDS011;46681;47.696;9.140;2023-06-22T17:33:48;7.57;;;4.03;;
60847;SDS011;46681;47.696;9.140;2023-06-22T17:36:23;6.97;;;3.70;;
60847;SDS011;46681;47.696;9.140;2023-06-22T17:39:13;5.10;;;3.73;;
60847;SDS011;46681;47.696;9.140;2023-06-22T17:41:56;5.60;;;4.37;;
60847;SDS011;46681;47.696;9.140;2023-06-22T17:44:26;6.10;;;3.70;;
60847;SDS011;46681;47.696;9.140;2023-06-22T17:47:14;6.63;;;3.57;;
60847;SDS011;46681;47.696;9.140;2023-06-22T17:50:08;5.60;;;3.93;;
60847;SDS011;46681;47.696;9.140;2023-06-22T17:52:54;5.50;;;3.77;;
60847;SDS011;46681;47.696;9.140;2023-06-22T17:55:32;14.43;;;4.37;;
60847;SDS011;46681;47.696;9.140;2023-06-22T18:01:01;5.20;;;3.70;;
60847;SDS011;46681;47.696;9.140;2023-06-22T18:03:30;5.47;;;3.60;;
60847;SDS011;46681;47.696;9.140;2023-06-22T18:06:03;4.73;;;3.70;;
60847;SDS011;46681;47.696;9.140;2023-06-22T18:08:51;8.07;;;4.53;;
60847;SDS011;46681;47.696;9.140;2023-06-22T18:11:49;7.43;;;3.70;;
60847;SDS011;46681;47.696;9.140;2023-06-22T18:14:16;4.10;;;3.60;;
60847;SDS011;46681;47.696;9.140;2023-06-22T18:16:49;5.47;;;3.87;;